Flight Track Log - Related Links

Times and Time Zones

All times are in EDT time to prevent confusion due to time zone crossing. See the N622QS flight status page for this flight to view local times or setup timezone preferences in your user account.

Time Position Orientation Groundspeed Altitude Reporting Facility
EDT Latitude Longitude Course Direction KTS MPH feet Rate Location/Type
Sun 11:16:52 AM 35.0667 -89.9833 301° West 190 219 1,100  Level KMEM
Sun 11:17:28 AM 35.0833 -90.0167 301° West 198 228 2,400 1,333 Climbing KMEM
Sun 11:18:22 AM 35.1167 -90.0000 22° Northeast 203 234 3,100 368 Climbing KMEM
Sun 11:19:22 AM 35.1500 -89.9333 59° Northeast 210 242 3,100 1,300 Level KMEM
Sun 11:20:22 AM 35.1167 -89.8667 121° Southeast 253 291 5,700 2,797 Climbing KMEM
Sun 11:21:20 AM 35.0981 -89.7869 106° East 258 297 8,600 2,826 Climbing Memphis Center
Sun 11:22:23 AM 35.0706 -89.6956 110° East 278 320 11,400 2,496 Climbing Memphis Center
Sun 11:23:25 AM 35.0408 -89.5950 110° East 302 348 13,800 2,468 Climbing Memphis Center
Sun 11:24:27 AM 35.0097 -89.4928 110° East 314 361 16,500 2,323 Climbing Memphis Center
Sun 11:25:29 AM 34.9783 -89.3908 111° Southeast 314 361 18,600 1,935 Climbing Memphis Center
Sun 11:26:31 AM 34.9453 -89.2825 110° East 332 382 20,500 2,081 Climbing Memphis Center
Sun 11:27:33 AM 34.9044 -89.1478 110° East 348 400 22,900 2,081 Climbing Memphis Center
Sun 11:28:35 AM 34.8797 -89.0286 104° East 358 412 24,800 1,887 Climbing Memphis Center
Sun 11:29:37 AM 34.8325 -88.9181 117° Southeast 361 415 26,800 1,790 Climbing Memphis Center
Sun 11:30:39 AM 34.7831 -88.8067 118° Southeast 369 425 28,500 1,548 Climbing Memphis Center
Sun 11:31:41 AM 34.7325 -88.6911 118° Southeast 382 440 30,000 1,210 Climbing Memphis Center
Sun 11:32:43 AM 34.6794 -88.5753 119° Southeast 386 444 31,000 484 Climbing Memphis Center
Sun 11:33:45 AM 34.6186 -88.4350 118° Southeast 420 483 31,000 48 Level Memphis Center
Sun 11:34:47 AM 34.5603 -88.3047 119° Southeast 436 502 31,100 871 Climbing Memphis Center
Sun 11:35:49 AM 34.5039 -88.1792 119° Southeast 430 495 32,800 919 Climbing Memphis Center
Sun 11:36:51 AM 34.4372 -88.0294 118° Southeast 420 483 33,000 919 Climbing Memphis Center
Sun 11:37:53 AM 34.3806 -87.9056 119° Southeast 426 490 34,700 1,680 Climbing Memphis Center
Sun 11:38:56 AM 34.3322 -87.7997 119° Southeast 402 463 36,500 1,584 Climbing Memphis Center
Sun 11:39:58 AM 34.2697 -87.6661 119° Southeast 387 445 38,000 1,210 Climbing Memphis Center
Sun 11:41:00 AM 34.2172 -87.5506 119° Southeast 387 445 39,000 968 Climbing Memphis Center
Sun 11:42:02 AM 34.1611 -87.4367 121° Southeast 392 451 40,000 968 Climbing Memphis Center
Sun 11:43:04 AM 34.0919 -87.3350 129° Southeast 392 451 41,000 484 Climbing Memphis Center
Sun 11:44:06 AM 34.0361 -87.2150 119° Southeast 399 459 41,000  Level Memphis Center
Sun 11:45:08 AM 33.9772 -87.0939 120° Southeast 415 478 41,000  Level Memphis Center
Sun 11:46:10 AM 33.9181 -86.9714 120° Southeast 420 483 41,000  Level Memphis Center
Sun 11:46:50 AM 33.8661 -86.8658 121° Southeast 420 483 41,000  Level Atlanta Center
Sun 11:47:50 AM 33.8064 -86.7414 120° Southeast 425 489 41,000  Level Atlanta Center
Sun 11:48:50 AM 33.7464 -86.6169 120° Southeast 430 495 41,000  Level Atlanta Center
Sun 11:49:50 AM 33.6883 -86.4931 119° Southeast 430 495 41,000  Level Atlanta Center
Sun 11:50:50 AM 33.6261 -86.3689 121° Southeast 430 495 41,000  Level Atlanta Center
Sun 11:51:50 AM 33.5736 -86.2678 122° Southeast 437 503 41,000  Level Atlanta Center
Sun 11:52:50 AM 33.5114 -86.1342 119° Southeast 432 497 41,000  Level Atlanta Center
Sun 11:53:50 AM 33.4489 -86.0031 120° Southeast 438 504 41,000  Level Atlanta Center
Sun 11:54:50 AM 33.3900 -85.8850 121° Southeast 433 498 41,000  Level Atlanta Center
Sun 11:55:50 AM 33.3231 -85.7617 123° Southeast 433 498 41,000  Level Atlanta Center
Sun 11:56:50 AM 33.2642 -85.6314 118° Southeast 433 498 41,000  Level Atlanta Center
Sun 11:57:50 AM 33.2031 -85.5111 121° Southeast 438 504 41,000  Level Atlanta Center
Sun 11:58:50 AM 33.1317 -85.3783 123° Southeast 431 496 41,000  Level Atlanta Center
Sun 11:59:50 AM 33.0703 -85.2533 120° Southeast 431 496 41,000 -100 Level Atlanta Center
Sun 12:00:50 PM 33.0067 -85.1286 121° Southeast 448 516 40,800 -950 Descending Atlanta Center
Sun 12:01:50 PM 32.9450 -85.0067 121° Southeast 436 502 39,100 -1,650 Descending Atlanta Center
Sun 12:02:50 PM 32.8856 -84.8872 121° Southeast 429 494 37,500 -1,500 Descending Atlanta Center
Sun 12:03:50 PM 32.8256 -84.7731 102° East 424 488 36,100 -750 Descending Atlanta Center
Sun 12:04:00 PM 32.8634 -84.7600 102° East  Level FlightAware Approximate
Sun 12:04:50 PM 32.7700 -84.6639 121° Southeast 424 488 36,000  Level Atlanta Center
Sun 12:05:50 PM 32.7078 -84.5400 121° Southeast 431 496 36,000 -100 Level Atlanta Center
Sun 12:06:50 PM 32.6436 -84.4186 122° Southeast 431 496 35,800 -600 Descending Atlanta Center
Sun 12:07:50 PM 32.5833 -84.3003 121° Southeast 431 496 34,800 -1,400 Descending Atlanta Center
Sun 12:08:50 PM 32.5208 -84.1817 122° Southeast 431 496 33,000 -1,950 Descending Atlanta Center
Sun 12:09:50 PM 32.4606 -84.0611 121° Southeast 431 496 30,900 -2,050 Descending Atlanta Center
Sun 12:10:50 PM 32.3978 -83.9431 122° Southeast 431 496 28,900 -2,000 Descending Atlanta Center
Sun 12:11:50 PM 32.3350 -83.8200 121° Southeast 431 496 26,900 -2,000 Descending Atlanta Center
Sun 12:12:50 PM 32.2681 -83.6975 123° Southeast 436 502 24,900 -1,024 Descending Atlanta Center
Sun 12:14:40 PM 32.1569 -83.4792 121° Southeast 438 504 24,000 -459 Descending Jacksonville Center
Sun 12:15:40 PM 32.0947 -83.3658 123° Southeast 427 491 23,600 -1,100 Descending Jacksonville Center
Sun 12:16:40 PM 32.0344 -83.2503 122° Southeast 417 480 21,800 -1,650 Descending Jacksonville Center
Sun 12:17:40 PM 31.9742 -83.1425 123° Southeast 410 472 20,300 -1,513 Descending Jacksonville Center
Sun 12:18:39 PM 31.9158 -83.0297 121° Southeast 405 466 18,800 -1,300 Descending Jacksonville Center
Sun 12:19:40 PM 31.8575 -82.9219 122° Southeast 400 460 17,700 -1,190 Descending Jacksonville Center
Sun 12:20:40 PM 31.7992 -82.8144 123° Southeast 393 452 16,400 -1,250 Descending Jacksonville Center
Sun 12:21:40 PM 31.7447 -82.7094 121° Southeast 393 452 15,200 -1,200 Descending Jacksonville Center
Sun 12:22:40 PM 31.6817 -82.5947 123° Southeast 393 452 14,000 -1,200 Descending Jacksonville Center
Sun 12:23:40 PM 31.6253 -82.4950 124° Southeast 381 438 12,800 -950 Descending Jacksonville Center
Sun 12:24:40 PM 31.5725 -82.3928 121° Southeast 374 430 12,100 -1,300 Descending Jacksonville Center
Sun 12:25:40 PM 31.5264 -82.3150 125° Southeast 348 400 10,200 -1,714 Descending Jacksonville Center
Sun 12:26:39 PM 31.4778 -82.2228 122° Southeast 300 345 8,700 -1,450 Descending Jacksonville Center
Sun 12:27:40 PM 31.4419 -82.1547 122° Southeast 279 321 7,300 -850 Descending Jacksonville Center
Sun 12:28:39 PM 31.3956 -82.0700 123° Southeast 279 321 7,000 -800 Descending Jacksonville Center
Sun 12:29:40 PM 31.3575 -82.0022 123° Southeast 268 308 5,700 -1,000 Descending Jacksonville Center
Sun 12:30:39 PM 31.3172 -81.9294 123° Southeast 262 302 5,000 -403 Descending Jacksonville Center
Sun 12:31:39 PM 31.2792 -81.8619 123° Southeast 262 302 4,900 -750 Descending Jacksonville Center
Sun 12:32:39 PM 31.2411 -81.7894 122° Southeast 262 302 3,500 -1,488 Descending Jacksonville Center
Sun 12:33:40 PM 31.2006 -81.7169 123° Southeast 257 296 1,900 -1,574 Descending Jacksonville Center

Login

Don't have an account? Register now (free) for customized features, flight alerts, and more!